sensor_id;sensor_type;location;lat;lon;timestamp;pressure;altitude;pressure_sealevel;temperature;humidity
22743;BME280;11538;48.884;8.696;2022-10-04T00:01:42;99510.72;;;8.68;100.00
22743;BME280;11538;48.884;8.696;2022-10-04T00:06:48;99504.78;;;8.71;100.00
22743;BME280;11538;48.884;8.696;2022-10-04T00:09:23;99504.25;;;8.69;100.00
22743;BME280;11538;48.884;8.696;2022-10-04T00:11:53;99496.66;;;8.71;100.00
22743;BME280;11538;48.884;8.696;2022-10-04T00:14:29;99494.50;;;8.68;100.00
22743;BME280;11538;48.884;8.696;2022-10-04T00:16:57;99504.78;;;8.66;100.00
22743;BME280;11538;48.884;8.696;2022-10-04T00:24:35;99491.53;;;8.80;100.00
22743;BME280;11538;48.884;8.696;2022-10-04T00:27:20;99488.28;;;8.83;100.00
22743;BME280;11538;48.884;8.696;2022-10-04T00:30:13;99482.06;;;8.82;100.00
22743;BME280;11538;48.884;8.696;2022-10-04T00:40:33;99477.72;;;8.76;100.00
22743;BME280;11538;48.884;8.696;2022-10-04T00:43:06;99478.28;;;8.62;100.00
22743;BME280;11538;48.884;8.696;2022-10-04T00:45:42;99470.94;;;8.58;100.00
22743;BME280;11538;48.884;8.696;2022-10-04T00:51:03;99457.44;;;8.53;100.00
22743;BME280;11538;48.884;8.696;2022-10-04T00:53:51;99466.03;;;8.44;100.00
22743;BME280;11538;48.884;8.696;2022-10-04T00:57:10;99467.94;;;8.44;100.00
22743;BME280;11538;48.884;8.696;2022-10-04T00:59:39;99456.84;;;8.45;100.00
22743;BME280;11538;48.884;8.696;2022-10-04T01:04:42;99464.19;;;8.55;100.00
22743;BME280;11538;48.884;8.696;2022-10-04T01:07:12;99463.94;;;8.62;100.00
22743;BME280;11538;48.884;8.696;2022-10-04T01:09:53;99453.13;;;8.67;100.00
22743;BME280;11538;48.884;8.696;2022-10-04T01:15:11;99458.25;;;8.63;100.00
22743;BME280;11538;48.884;8.696;2022-10-04T01:17:39;99460.69;;;8.65;100.00
22743;BME280;11538;48.884;8.696;2022-10-04T01:20:32;99458.25;;;8.63;100.00
22743;BME280;11538;48.884;8.696;2022-10-04T01:22:59;99455.00;;;8.56;100.00
22743;BME280;11538;48.884;8.696;2022-10-04T01:25:43;99450.13;;;8.58;100.00
22743;BME280;11538;48.884;8.696;2022-10-04T01:28:10;99450.69;;;8.55;100.00
22743;BME280;11538;48.884;8.696;2022-10-04T01:30:38;99446.06;;;8.61;100.00
22743;BME280;11538;48.884;8.696;2022-10-04T01:33:05;99441.22;;;8.63;100.00
22743;BME280;11538;48.884;8.696;2022-10-04T01:35:32;99429.34;;;8.69;100.00
22743;BME280;11538;48.884;8.696;2022-10-04T01:38:03;99424.19;;;8.68;100.00
22743;BME280;11538;48.884;8.696;2022-10-04T01:40:42;99419.59;;;8.68;100.00
22743;BME280;11538;48.884;8.696;2022-10-04T01:43:14;99421.47;;;8.68;100.00
22743;BME280;11538;48.884;8.696;2022-10-04T01:45:46;99419.31;;;8.65;100.00
22743;BME280;11538;48.884;8.696;2022-10-04T01:48:21;99413.38;;;8.57;100.00
22743;BME280;11538;48.884;8.696;2022-10-04T01:50:57;99410.38;;;8.54;100.00
22743;BME280;11538;48.884;8.696;2022-10-04T01:53:28;99414.44;;;8.56;100.00
22743;BME280;11538;48.884;8.696;2022-10-04T01:56:07;99404.72;;;8.55;100.00
22743;BME280;11538;48.884;8.696;2022-10-04T01:58:43;99403.09;;;8.59;100.00
22743;BME280;11538;48.884;8.696;2022-10-04T02:01:15;99399.03;;;8.57;100.00
22743;BME280;11538;48.884;8.696;2022-10-04T02:04:00;99401.47;;;8.58;100.00
22743;BME280;11538;48.884;8.696;2022-10-04T02:06:35;99399.56;;;8.54;100.00
22743;BME280;11538;48.884;8.696;2022-10-04T02:09:11;99397.41;;;8.51;100.00
22743;BME280;11538;48.884;8.696;2022-10-04T02:11:40;99394.44;;;8.52;100.00
22743;BME280;11538;48.884;8.696;2022-10-04T02:14:12;99392.50;;;8.47;100.00
22743;BME280;11538;48.884;8.696;2022-10-04T02:16:45;99389.28;;;8.51;100.00
22743;BME280;11538;48.884;8.696;2022-10-04T02:19:18;99388.72;;;8.48;100.00
22743;BME280;11538;48.884;8.696;2022-10-04T02:21:46;99379.00;;;8.47;100.00
22743;BME280;11538;48.884;8.696;2022-10-04T02:24:14;99386.59;;;8.51;100.00
22743;BME280;11538;48.884;8.696;2022-10-04T02:26:41;99380.38;;;8.50;100.00
22743;BME280;11538;48.884;8.696;2022-10-04T02:29:08;99381.47;;;8.49;100.00
22743;BME280;11538;48.884;8.696;2022-10-04T02:31:37;99374.13;;;8.44;100.00
22743;BME280;11538;48.884;8.696;2022-10-04T02:34:23;99377.13;;;8.43;100.00
22743;BME280;11538;48.884;8.696;2022-10-04T02:36:50;99377.91;;;8.43;100.00
22743;BME280;11538;48.884;8.696;2022-10-04T02:39:24;99374.66;;;8.41;100.00
22743;BME280;11538;48.884;8.696;2022-10-04T02:42:07;99374.13;;;8.44;100.00
22743;BME280;11538;48.884;8.696;2022-10-04T02:44:45;99378.47;;;8.51;100.00
22743;BME280;11538;48.884;8.696;2022-10-04T02:47:18;99378.47;;;8.51;100.00
22743;BME280;11538;48.884;8.696;2022-10-04T02:49:50;99383.06;;;8.45;100.00
22743;BME280;11538;48.884;8.696;2022-10-04T02:52:42;99374.41;;;8.32;100.00
22743;BME280;11538;48.884;8.696;2022-10-04T02:55:18;99373.59;;;8.27;100.00
22743;BME280;11538;48.884;8.696;2022-10-04T02:57:46;99380.91;;;8.26;100.00
22743;BME280;11538;48.884;8.696;2022-10-04T03:00:21;99385.22;;;8.27;100.00
22743;BME280;11538;48.884;8.696;2022-10-04T03:03:27;99377.66;;;8.34;100.00
22743;BME280;11538;48.884;8.696;2022-10-04T03:06:05;99378.19;;;8.42;100.00
22743;BME280;11538;48.884;8.696;2022-10-04T03:08:44;99383.59;;;8.42;100.00
22743;BME280;11538;48.884;8.696;2022-10-04T03:11:15;99377.13;;;8.43;100.00
22743;BME280;11538;48.884;8.696;2022-10-04T03:13:48;99376.81;;;8.39;100.00
22743;BME280;11538;48.884;8.696;2022-10-04T03:16:16;99369.25;;;8.36;100.00
22743;BME280;11538;48.884;8.696;2022-10-04T03:18:45;99360.59;;;8.34;100.00
22743;BME280;11538;48.884;8.696;2022-10-04T03:21:15;99358.72;;;8.34;100.00
22743;BME280;11538;48.884;8.696;2022-10-04T03:23:44;99356.56;;;8.37;100.00
22743;BME280;11538;48.884;8.696;2022-10-04T03:28:51;99358.19;;;8.38;100.00
22743;BME280;11538;48.884;8.696;2022-10-04T03:31:18;99354.41;;;8.44;100.00
22743;BME280;11538;48.884;8.696;2022-10-04T03:33:46;99345.47;;;8.48;100.00
22743;BME280;11538;48.884;8.696;2022-10-04T03:36:15;99335.50;;;8.49;100.00
22743;BME280;11538;48.884;8.696;2022-10-04T03:38:45;99338.97;;;8.44;100.00
22743;BME280;11538;48.884;8.696;2022-10-04T03:41:13;99334.66;;;8.43;100.00
22743;BME280;11538;48.884;8.696;2022-10-04T03:43:45;99334.94;;;8.47;100.00
22743;BME280;11538;48.884;8.696;2022-10-04T03:46:16;99340.06;;;8.43;100.00
22743;BME280;11538;48.884;8.696;2022-10-04T03:48:50;99343.03;;;8.42;100.00
22743;BME280;11538;48.884;8.696;2022-10-04T03:51:23;99354.66;;;8.42;100.00
22743;BME280;11538;48.884;8.696;2022-10-04T03:53:55;99339.25;;;8.43;100.00
22743;BME280;11538;48.884;8.696;2022-10-04T03:56:28;99334.41;;;8.40;100.00
22743;BME280;11538;48.884;8.696;2022-10-04T03:58:56;99346.28;;;8.39;100.00
22743;BME280;11538;48.884;8.696;2022-10-04T04:01:36;99343.59;;;8.33;100.00
22743;BME280;11538;48.884;8.696;2022-10-04T04:06:58;99351.16;;;8.26;100.00
22743;BME280;11538;48.884;8.696;2022-10-04T04:09:54;99349.25;;;8.37;100.00
22743;BME280;11538;48.884;8.696;2022-10-04T04:12:36;99357.66;;;8.41;100.00
22743;BME280;11538;48.884;8.696;2022-10-04T04:15:09;99349.00;;;8.39;100.00
22743;BME280;11538;48.884;8.696;2022-10-04T04:17:42;99352.25;;;8.36;100.00
22743;BME280;11538;48.884;8.696;2022-10-04T04:20:17;99350.63;;;8.29;100.00
22743;BME280;11538;48.884;8.696;2022-10-04T04:22:55;99346.00;;;8.35;100.00
22743;BME280;11538;48.884;8.696;2022-10-04T04:25:25;99351.97;;;8.37;100.00
22743;BME280;11538;48.884;8.696;2022-10-04T04:28:01;99346.28;;;8.33;100.00
22743;BME280;11538;48.884;8.696;2022-10-04T04:30:33;99349.78;;;8.34;100.00
22743;BME280;11538;48.884;8.696;2022-10-04T04:33:08;99348.47;;;8.31;100.00
22743;BME280;11538;48.884;8.696;2022-10-04T04:35:44;99350.63;;;8.29;100.00
22743;BME280;11538;48.884;8.696;2022-10-04T04:38:23;99351.72;;;8.28;100.00
22743;BME280;11538;48.884;8.696;2022-10-04T04:40:51;99352.78;;;8.27;100.00
22743;BME280;11538;48.884;8.696;2022-10-04T04:43:26;99354.13;;;8.25;100.00
22743;BME280;11538;48.884;8.696;2022-10-04T04:45:54;99363.06;;;8.30;100.00
22743;BME280;11538;48.884;8.696;2022-10-04T04:48:47;99362.78;;;8.32;100.00
22743;BME280;11538;48.884;8.696;2022-10-04T04:51:20;99368.19;;;8.32;100.00
22743;BME280;11538;48.884;8.696;2022-10-04T04:53:48;99365.75;;;8.30;100.00
22743;BME280;11538;48.884;8.696;2022-10-04T04:56:18;99367.09;;;8.23;100.00
22743;BME280;11538;48.884;8.696;2022-10-04T04:58:48;99364.69;;;8.21;100.00
22743;BME280;11538;48.884;8.696;2022-10-04T05:01:22;99369.78;;;8.17;100.00
22743;BME280;11538;48.884;8.696;2022-10-04T05:04:13;99366.28;;;8.12;100.00
22743;BME280;11538;48.884;8.696;2022-10-04T05:06:47;99366.53;;;8.10;100.00
22743;BME280;11538;48.884;8.696;2022-10-04T05:11:49;99371.16;;;8.04;100.00
22743;BME280;11538;48.884;8.696;2022-10-04T05:14:17;99367.91;;;8.08;100.00
22743;BME280;11538;48.884;8.696;2022-10-04T05:16:48;99371.41;;;8.08;100.00
22743;BME280;11538;48.884;8.696;2022-10-04T05:19:20;99372.22;;;8.09;100.00
22743;BME280;11538;48.884;8.696;2022-10-04T05:21:50;99373.03;;;7.99;100.00
22743;BME280;11538;48.884;8.696;2022-10-04T05:24:33;99373.31;;;8.02;100.00
22743;BME280;11538;48.884;8.696;2022-10-04T05:27:34;99377.88;;;8.02;100.00
22743;BME280;11538;48.884;8.696;2022-10-04T05:33:12;99367.63;;;7.99;100.00
22743;BME280;11538;48.884;8.696;2022-10-04T05:35:56;99377.59;;;7.93;100.00
22743;BME280;11538;48.884;8.696;2022-10-04T05:38:47;99381.91;;;7.89;100.00
22743;BME280;11538;48.884;8.696;2022-10-04T05:46:56;99386.78;;;7.92;100.00
22743;BME280;11538;48.884;8.696;2022-10-04T05:49:28;99382.19;;;7.98;100.00
22743;BME280;11538;48.884;8.696;2022-10-04T05:52:02;99381.41;;;7.97;100.00
22743;BME280;11538;48.884;8.696;2022-10-04T05:54:33;99387.59;;;7.98;100.00
22743;BME280;11538;48.884;8.696;2022-10-04T05:57:35;99388.69;;;7.97;100.00
22743;BME280;11538;48.884;8.696;2022-10-04T06:00:44;99403.28;;;8.01;100.00
22743;BME280;11538;48.884;8.696;2022-10-04T06:03:26;99406.75;;;7.91;100.00
22743;BME280;11538;48.884;8.696;2022-10-04T06:06:04;99406.22;;;7.89;100.00
22743;BME280;11538;48.884;8.696;2022-10-04T06:14:59;99406.81;;;7.96;100.00
22743;BME280;11538;48.884;8.696;2022-10-04T06:17:42;99397.34;;;8.04;100.00
22743;BME280;11538;48.884;8.696;2022-10-04T06:20:24;99398.44;;;8.08;100.00
22743;BME280;11538;48.884;8.696;2022-10-04T06:22:59;99397.63;;;8.13;100.00
22743;BME280;11538;48.884;8.696;2022-10-04T06:25:35;99396.56;;;8.19;100.00
22743;BME280;11538;48.884;8.696;2022-10-04T06:28:15;99400.06;;;8.25;100.00
22743;BME280;11538;48.884;8.696;2022-10-04T06:36:19;99390.09;;;8.41;100.00
22743;BME280;11538;48.884;8.696;2022-10-04T06:41:55;99381.97;;;8.36;100.00
22743;BME280;11538;48.884;8.696;2022-10-04T06:49:55;99368.19;;;8.58;100.00
22743;BME280;11538;48.884;8.696;2022-10-04T06:52:37;99368.22;;;8.63;100.00
22743;BME280;11538;48.884;8.696;2022-10-04T06:58:35;99383.63;;;8.52;100.00
22743;BME280;11538;48.884;8.696;2022-10-04T07:01:31;99377.66;;;8.66;100.00
22743;BME280;11538;48.884;8.696;2022-10-04T07:04:55;99376.56;;;8.77;100.00
22743;BME280;11538;48.884;8.696;2022-10-04T07:07:36;99381.94;;;8.92;100.00
22743;BME280;11538;48.884;8.696;2022-10-04T07:10:17;99383.03;;;8.97;100.00
22743;BME280;11538;48.884;8.696;2022-10-04T07:13:04;99384.38;;;8.99;100.00
22743;BME280;11538;48.884;8.696;2022-10-04T07:15:49;99385.69;;;9.07;100.00
22743;BME280;11538;48.884;8.696;2022-10-04T07:18:31;99392.16;;;9.21;100.00
22743;BME280;11538;48.884;8.696;2022-10-04T07:21:20;99401.88;;;9.33;100.00
22743;BME280;11538;48.884;8.696;2022-10-04T07:23:58;99407.53;;;9.42;100.00
22743;BME280;11538;48.884;8.696;2022-10-04T07:26:32;99407.25;;;9.43;100.00
22743;BME280;11538;48.884;8.696;2022-10-04T07:29:06;99424.59;;;9.42;100.00
22743;BME280;11538;48.884;8.696;2022-10-04T07:31:51;99422.97;;;9.46;100.00
22743;BME280;11538;48.884;8.696;2022-10-04T07:34:27;99422.13;;;9.46;100.00
22743;BME280;11538;48.884;8.696;2022-10-04T07:36:59;99418.34;;;9.47;100.00
22743;BME280;11538;48.884;8.696;2022-10-04T07:39:56;99431.59;;;9.54;100.00
22743;BME280;11538;48.884;8.696;2022-10-04T07:42:33;99432.13;;;9.56;100.00
22743;BME280;11538;48.884;8.696;2022-10-04T07:47:34;99429.91;;;9.68;100.00
22743;BME280;11538;48.884;8.696;2022-10-04T07:50:18;99429.06;;;9.73;100.00
22743;BME280;11538;48.884;8.696;2022-10-04T07:53:04;99430.06;;;9.87;100.00
22743;BME280;11538;48.884;8.696;2022-10-04T08:01:25;99419.63;;;10.15;100.00
22743;BME280;11538;48.884;8.696;2022-10-04T08:06:56;99417.91;;;10.30;100.00
22743;BME280;11538;48.884;8.696;2022-10-04T08:12:16;99407.13;;;10.59;100.00
22743;BME280;11538;48.884;8.696;2022-10-04T08:15:17;99408.53;;;10.86;100.00
22743;BME280;11538;48.884;8.696;2022-10-04T08:18:00;99400.50;;;11.00;100.00
22743;BME280;11538;48.884;8.696;2022-10-04T08:23:23;99395.31;;;11.52;100.00
22743;BME280;11538;48.884;8.696;2022-10-04T08:26:20;99395.63;;;11.70;99.01
22743;BME280;11538;48.884;8.696;2022-10-04T08:32:07;99396.88;;;12.02;96.45
22743;BME280;11538;48.884;8.696;2022-10-04T08:46:24;99415.66;;;13.03;91.53
22743;BME280;11538;48.884;8.696;2022-10-04T08:49:18;99413.31;;;13.24;90.48
22743;BME280;11538;48.884;8.696;2022-10-04T08:55:17;99411.56;;;13.48;89.01
22743;BME280;11538;48.884;8.696;2022-10-04T09:00:37;99405.84;;;13.86;86.39
22743;BME280;11538;48.884;8.696;2022-10-04T09:03:30;99408.66;;;13.95;85.85
22743;BME280;11538;48.884;8.696;2022-10-04T09:09:05;99417.47;;;14.28;83.45
22743;BME280;11538;48.884;8.696;2022-10-04T09:14:57;99417.63;;;14.32;82.48
22743;BME280;11538;48.884;8.696;2022-10-04T09:32:43;99384.66;;;14.65;84.97
22743;BME280;11538;48.884;8.696;2022-10-04T09:37:27;99385.78;;;14.96;82.33
22743;BME280;11538;48.884;8.696;2022-10-04T09:45:50;99385.13;;;15.30;80.73
22743;BME280;11538;48.884;8.696;2022-10-04T10:00:21;99384.28;;;16.58;76.05
22743;BME280;11538;48.884;8.696;2022-10-04T10:08:28;99385.75;;;17.51;75.21
22743;BME280;11538;48.884;8.696;2022-10-04T10:16:47;99385.78;;;17.93;72.77
22743;BME280;11538;48.884;8.696;2022-10-04T10:25:16;99385.47;;;18.83;70.46
22743;BME280;11538;48.884;8.696;2022-10-04T10:28:32;99377.84;;;19.14;69.99
22743;BME280;11538;48.884;8.696;2022-10-04T10:41:54;99371.50;;;19.76;65.16
22743;BME280;11538;48.884;8.696;2022-10-04T10:50:47;99365.94;;;20.13;62.35
22743;BME280;11538;48.884;8.696;2022-10-04T10:53:52;99358.13;;;20.15;61.96
22743;BME280;11538;48.884;8.696;2022-10-04T10:59:36;99352.66;;;20.02;65.10
22743;BME280;11538;48.884;8.696;2022-10-04T11:24:53;99339.38;;;23.10;56.03
22743;BME280;11538;48.884;8.696;2022-10-04T11:30:24;99344.13;;;22.63;52.33
22743;BME280;11538;48.884;8.696;2022-10-04T11:35:57;99329.22;;;23.18;51.86
22743;BME280;11538;48.884;8.696;2022-10-04T11:41:40;99322.69;;;24.59;47.14
22743;BME280;11538;48.884;8.696;2022-10-04T11:44:26;99323.00;;;24.92;45.83
22743;BME280;11538;48.884;8.696;2022-10-04T11:58:51;99297.16;;;24.80;47.32
22743;BME280;11538;48.884;8.696;2022-10-04T12:05:05;99301.44;;;26.08;42.36
22743;BME280;11538;48.884;8.696;2022-10-04T12:10:38;99307.47;;;26.21;41.15
22743;BME280;11538;48.884;8.696;2022-10-04T12:16:39;99299.59;;;26.66;39.98
22743;BME280;11538;48.884;8.696;2022-10-04T12:19:38;99301.97;;;26.57;39.92
22743;BME280;11538;48.884;8.696;2022-10-04T12:33:41;99293.09;;;27.67;38.56
22743;BME280;11538;48.884;8.696;2022-10-04T12:36:23;99284.31;;;27.72;38.93
22743;BME280;11538;48.884;8.696;2022-10-04T12:39:38;99279.50;;;27.80;39.27
22743;BME280;11538;48.884;8.696;2022-10-04T12:47:48;99275.56;;;27.67;40.40
22743;BME280;11538;48.884;8.696;2022-10-04T12:56:44;99273.41;;;28.14;39.83
22743;BME280;11538;48.884;8.696;2022-10-04T12:59:38;99276.03;;;28.33;39.60
22743;BME280;11538;48.884;8.696;2022-10-04T13:08:18;99268.22;;;28.09;39.56
22743;BME280;11538;48.884;8.696;2022-10-04T13:16:55;99280.31;;;27.77;40.19
22743;BME280;11538;48.884;8.696;2022-10-04T13:25:26;99275.97;;;27.72;40.10
22743;BME280;11538;48.884;8.696;2022-10-04T13:39:45;99272.13;;;27.26;40.92
22743;BME280;11538;48.884;8.696;2022-10-04T13:42:47;99280.50;;;27.23;41.00
22743;BME280;11538;48.884;8.696;2022-10-04T13:51:25;99266.59;;;26.57;41.85
22743;BME280;11538;48.884;8.696;2022-10-04T13:54:27;99269.78;;;26.52;42.07
22743;BME280;11538;48.884;8.696;2022-10-04T13:57:24;99261.00;;;26.39;42.34
22743;BME280;11538;48.884;8.696;2022-10-04T14:00:04;99260.94;;;26.10;42.97
22743;BME280;11538;48.884;8.696;2022-10-04T14:22:34;99255.28;;;22.41;51.50
22743;BME280;11538;48.884;8.696;2022-10-04T14:31:26;99237.63;;;21.44;55.42
22743;BME280;11538;48.884;8.696;2022-10-04T14:34:35;99235.66;;;21.25;55.86
22743;BME280;11538;48.884;8.696;2022-10-04T14:47:05;99227.63;;;20.68;58.85
22743;BME280;11538;48.884;8.696;2022-10-04T14:58:14;99212.94;;;20.15;61.26
22743;BME280;11538;48.884;8.696;2022-10-04T15:06:37;99209.75;;;19.97;62.97
22743;BME280;11538;48.884;8.696;2022-10-04T15:11:58;99209.56;;;19.90;61.35
22743;BME280;11538;48.884;8.696;2022-10-04T15:23:08;99206.53;;;19.67;63.93
22743;BME280;11538;48.884;8.696;2022-10-04T15:25:53;99213.31;;;19.57;64.61
22743;BME280;11538;48.884;8.696;2022-10-04T15:28:41;99208.31;;;19.47;65.10
22743;BME280;11538;48.884;8.696;2022-10-04T15:42:31;99210.47;;;19.12;68.51
22743;BME280;11538;48.884;8.696;2022-10-04T15:58:54;99189.09;;;18.68;70.15
22743;BME280;11538;48.884;8.696;2022-10-04T16:09:45;99187.72;;;18.62;70.18
22743;BME280;11538;48.884;8.696;2022-10-04T16:12:27;99184.38;;;18.44;72.48
22743;BME280;11538;48.884;8.696;2022-10-04T16:15:18;99180.38;;;18.29;74.68
22743;BME280;11538;48.884;8.696;2022-10-04T16:21:03;99191.78;;;18.06;79.42
22743;BME280;11538;48.884;8.696;2022-10-04T16:23:38;99191.81;;;17.85;82.93
22743;BME280;11538;48.884;8.696;2022-10-04T16:29:07;99190.44;;;17.79;83.83
22743;BME280;11538;48.884;8.696;2022-10-04T16:31:49;99186.84;;;17.66;85.33
22743;BME280;11538;48.884;8.696;2022-10-04T16:34:27;99198.38;;;17.59;86.74
22743;BME280;11538;48.884;8.696;2022-10-04T16:37:13;99199.19;;;17.38;87.94
22743;BME280;11538;48.884;8.696;2022-10-04T16:42:44;99204.16;;;17.24;90.35
22743;BME280;11538;48.884;8.696;2022-10-04T16:48:20;99213.09;;;17.12;92.61
22743;BME280;11538;48.884;8.696;2022-10-04T16:53:56;99207.66;;;16.73;96.62
22743;BME280;11538;48.884;8.696;2022-10-04T16:56:31;99218.31;;;16.66;97.54
22743;BME280;11538;48.884;8.696;2022-10-04T16:59:03;99222.75;;;16.49;99.62
22743;BME280;11538;48.884;8.696;2022-10-04T17:15:43;99204.53;;;16.06;100.00
22743;BME280;11538;48.884;8.696;2022-10-04T17:24:25;99199.75;;;15.76;100.00
22743;BME280;11538;48.884;8.696;2022-10-04T17:38:57;99201.06;;;15.35;100.00
22743;BME280;11538;48.884;8.696;2022-10-04T17:47:44;99193.78;;;15.21;100.00
22743;BME280;11538;48.884;8.696;2022-10-04T17:50:41;99194.16;;;15.29;100.00
22743;BME280;11538;48.884;8.696;2022-10-04T17:53:31;99202.84;;;15.31;100.00
22743;BME280;11538;48.884;8.696;2022-10-04T17:56:31;99201.72;;;15.32;100.00
22743;BME280;11538;48.884;8.696;2022-10-04T17:59:07;99204.09;;;15.16;100.00
22743;BME280;11538;48.884;8.696;2022-10-04T18:01:45;99203.91;;;15.03;100.00
22743;BME280;11538;48.884;8.696;2022-10-04T18:04:23;99200.38;;;14.94;100.00
22743;BME280;11538;48.884;8.696;2022-10-04T18:07:13;99205.66;;;14.90;100.00
22743;BME280;11538;48.884;8.696;2022-10-04T18:09:55;99200.81;;;14.79;100.00
22743;BME280;11538;48.884;8.696;2022-10-04T18:12:37;99202.25;;;14.76;100.00
22743;BME280;11538;48.884;8.696;2022-10-04T18:15:32;99216.06;;;14.71;100.00
22743;BME280;11538;48.884;8.696;2022-10-04T18:18:16;99223.72;;;14.60;100.00
22743;BME280;11538;48.884;8.696;2022-10-04T18:21:06;99218.84;;;14.57;100.00
22743;BME280;11538;48.884;8.696;2022-10-04T18:24:01;99222.34;;;14.48;100.00
22743;BME280;11538;48.884;8.696;2022-10-04T18:27:27;99225.56;;;14.42;100.00
22743;BME280;11538;48.884;8.696;2022-10-04T18:30:18;99237.88;;;14.39;100.00
22743;BME280;11538;48.884;8.696;2022-10-04T18:32:55;99237.38;;;14.28;100.00
22743;BME280;11538;48.884;8.696;2022-10-04T18:35:30;99236.19;;;14.21;100.00
22743;BME280;11538;48.884;8.696;2022-10-04T18:40:51;99237.00;;;14.21;100.00
22743;BME280;11538;48.884;8.696;2022-10-04T18:43:34;99231.56;;;14.21;100.00
22743;BME280;11538;48.884;8.696;2022-10-04T18:48:55;99232.81;;;14.15;100.00
22743;BME280;11538;48.884;8.696;2022-10-04T18:51:40;99236.94;;;14.12;100.00
22743;BME280;11538;48.884;8.696;2022-10-04T18:57:06;99236.16;;;14.12;100.00
22743;BME280;11538;48.884;8.696;2022-10-04T19:16:41;99260.06;;;13.69;100.00
22743;BME280;11538;48.884;8.696;2022-10-04T19:21:52;99250.34;;;13.54;100.00
22743;BME280;11538;48.884;8.696;2022-10-04T19:27:37;99270.66;;;13.48;100.00
22743;BME280;11538;48.884;8.696;2022-10-04T19:30:19;99275.00;;;13.49;100.00
22743;BME280;11538;48.884;8.696;2022-10-04T19:38:10;99283.97;;;13.50;100.00
22743;BME280;11538;48.884;8.696;2022-10-04T19:41:05;99287.81;;;13.49;100.00
22743;BME280;11538;48.884;8.696;2022-10-04T19:47:35;99295.09;;;13.25;100.00
22743;BME280;11538;48.884;8.696;2022-10-04T19:53:05;99296.44;;;13.00;100.00
22743;BME280;11538;48.884;8.696;2022-10-04T19:55:59;99298.22;;;13.05;100.00
22743;BME280;11538;48.884;8.696;2022-10-04T19:58:41;99301.44;;;13.07;100.00
22743;BME280;11538;48.884;8.696;2022-10-04T20:01:19;99311.56;;;13.06;100.00
22743;BME280;11538;48.884;8.696;2022-10-04T20:03:50;99308.84;;;13.06;100.00
22743;BME280;11538;48.884;8.696;2022-10-04T20:06:46;99320.00;;;13.05;100.00
22743;BME280;11538;48.884;8.696;2022-10-04T20:09:31;99316.91;;;13.11;100.00
22743;BME280;11538;48.884;8.696;2022-10-04T20:12:37;99323.53;;;13.19;100.00
22743;BME280;11538;48.884;8.696;2022-10-04T20:17:59;99314.88;;;12.89;100.00
22743;BME280;11538;48.884;8.696;2022-10-04T20:23:06;99323.53;;;12.91;100.00
22743;BME280;11538;48.884;8.696;2022-10-04T20:30:57;99334.41;;;12.63;100.00
22743;BME280;11538;48.884;8.696;2022-10-04T20:43:57;99335.97;;;12.50;100.00
22743;BME280;11538;48.884;8.696;2022-10-04T20:46:26;99330.94;;;12.43;100.00
22743;BME280;11538;48.884;8.696;2022-10-04T20:48:53;99341.31;;;12.41;100.00
22743;BME280;11538;48.884;8.696;2022-10-04T20:51:21;99339.81;;;12.49;100.00
22743;BME280;11538;48.884;8.696;2022-10-04T20:53:51;99343.78;;;12.57;100.00
22743;BME280;11538;48.884;8.696;2022-10-04T20:56:28;99342.06;;;12.61;100.00
22743;BME280;11538;48.884;8.696;2022-10-04T20:58:58;99345.66;;;12.56;100.00
22743;BME280;11538;48.884;8.696;2022-10-04T21:01:30;99340.41;;;12.46;100.00
22743;BME280;11538;48.884;8.696;2022-10-04T21:06:58;99354.91;;;12.41;100.00
22743;BME280;11538;48.884;8.696;2022-10-04T21:09:27;99348.81;;;12.31;100.00
22743;BME280;11538;48.884;8.696;2022-10-04T21:11:55;99350.84;;;12.25;100.00
22743;BME280;11538;48.884;8.696;2022-10-04T21:16:52;99353.72;;;12.14;100.00
22743;BME280;11538;48.884;8.696;2022-10-04T21:27:30;99352.03;;;12.19;100.00
22743;BME280;11538;48.884;8.696;2022-10-04T21:30:05;99354.00;;;12.13;100.00
22743;BME280;11538;48.884;8.696;2022-10-04T21:32:50;99349.31;;;12.19;100.00
22743;BME280;11538;48.884;8.696;2022-10-04T21:35:17;99356.66;;;12.18;100.00
22743;BME280;11538;48.884;8.696;2022-10-04T21:37:44;99355.03;;;12.17;100.00
22743;BME280;11538;48.884;8.696;2022-10-04T21:40:12;99361.66;;;12.11;100.00
22743;BME280;11538;48.884;8.696;2022-10-04T21:42:39;99356.72;;;12.13;100.00
22743;BME280;11538;48.884;8.696;2022-10-04T21:45:06;99355.00;;;12.03;100.00
22743;BME280;11538;48.884;8.696;2022-10-04T21:47:33;99359.72;;;11.92;100.00
22743;BME280;11538;48.884;8.696;2022-10-04T21:50:00;99355.38;;;11.91;100.00
22743;BME280;11538;48.884;8.696;2022-10-04T21:52:26;99349.22;;;11.85;100.00
22743;BME280;11538;48.884;8.696;2022-10-04T21:54:53;99356.84;;;11.83;100.00
22743;BME280;11538;48.884;8.696;2022-10-04T21:57:20;99352.94;;;11.90;100.00
22743;BME280;11538;48.884;8.696;2022-10-04T21:59:49;99346.66;;;11.94;100.00
22743;BME280;11538;48.884;8.696;2022-10-04T22:02:16;99348.34;;;11.90;100.00
22743;BME280;11538;48.884;8.696;2022-10-04T22:04:43;99345.69;;;11.85;100.00
22743;BME280;11538;48.884;8.696;2022-10-04T22:07:09;99340.47;;;11.89;100.00
22743;BME280;11538;48.884;8.696;2022-10-04T22:09:36;99341.66;;;11.82;100.00
22743;BME280;11538;48.884;8.696;2022-10-04T22:12:03;99342.22;;;11.79;100.00
22743;BME280;11538;48.884;8.696;2022-10-04T22:14:30;99335.09;;;11.83;100.00
22743;BME280;11538;48.884;8.696;2022-10-04T22:16:57;99326.16;;;11.83;100.00
22743;BME280;11538;48.884;8.696;2022-10-04T22:19:24;99327.97;;;11.88;100.00
22743;BME280;11538;48.884;8.696;2022-10-04T22:21:50;99319.03;;;11.87;100.00
22743;BME280;11538;48.884;8.696;2022-10-04T22:24:19;99321.94;;;11.91;100.00
22743;BME280;11538;48.884;8.696;2022-10-04T22:26:46;99314.38;;;11.88;100.00
22743;BME280;11538;48.884;8.696;2022-10-04T22:29:15;99309.53;;;11.84;100.00
22743;BME280;11538;48.884;8.696;2022-10-04T22:31:46;99305.13;;;11.89;100.00